Time;durP1;ratioP1;P1;durP2;ratioP2;P2;SDS_P1;SDS_P2;PMS_P1;PMS_P2;Temp;Humidity;BMP_temperature;BMP_pressure;BME280_temperature;BME280_humidity;BME280_pressure;Samples;Min_cycle;Max_cycle;Signal;HPM_P1;HPM_P2
2023/09/06 00:00:17;;;;;;;3.15;2.10;;;;;;;;;;477342;28;1311;-70
2023/09/06 00:00:37;;;;;;;3.83;2.00;;;;;;;;;;480575;28;1054;-71
2023/09/06 00:00:53;;;;;;;2.83;2.20;;;;;;;;;;479391;28;1304;-71
2023/09/06 00:01:08;;;;;;;3.65;2.10;;;;;;;;;;480569;28;1417;-71
2023/09/06 00:01:24;;;;;;;3.90;2.17;;;;;;;;;;478911;28;1275;-70
2023/09/06 00:01:40;;;;;;;3.80;2.35;;;;;;;;;;479075;28;1148;-71
2023/09/06 00:01:56;;;;;;;4.00;2.17;;;;;;;;;;479510;28;1117;-71
2023/09/06 00:02:12;;;;;;;4.25;2.00;;;;;;;;;;480397;28;1062;-70
2023/09/06 00:02:29;;;;;;;3.50;1.98;;;;;;;;;;479781;28;1102;-71
2023/09/06 00:02:44;;;;;;;3.08;2.03;;;;;;;;;;479395;28;1276;-70
2023/09/06 00:03:00;;;;;;;3.17;2.17;;;;;;;;;;480867;28;1002;-71
2023/09/06 00:03:17;;;;;;;3.60;2.25;;;;;;;;;;481192;28;1440;-70
2023/09/06 00:03:32;;;;;;;3.35;2.20;;;;;;;;;;484074;28;1281;-71
2023/09/06 00:03:51;;;;;;;2.80;2.00;;;;;;;;;;481868;28;1201;-70
2023/09/06 00:04:07;;;;;;;3.25;2.03;;;;;;;;;;482269;28;1593;-71
2023/09/06 00:04:25;;;;;;;2.95;2.00;;;;;;;;;;483486;28;1446;-71
2023/09/06 00:04:41;;;;;;;2.60;2.10;;;;;;;;;;482657;28;1386;-70
2023/09/06 00:04:57;;;;;;;3.03;2.13;;;;;;;;;;481696;28;1079;-72
2023/09/06 00:05:13;;;;;;;2.90;2.05;;;;;;;;;;481664;28;1124;-70
2023/09/06 00:05:29;;;;;;;3.23;2.17;;;;;;;;;;482085;28;1210;-71
2023/09/06 00:05:45;;;;;;;4.07;2.30;;;;;;;;;;482407;28;1361;-71
2023/09/06 00:06:00;;;;;;;6.70;2.40;;;;;;;;;;482997;28;1175;-71
2023/09/06 00:06:17;;;;;;;6.17;2.30;;;;;;;;;;483176;28;1240;-70
2023/09/06 00:06:33;;;;;;;3.50;2.00;;;;;;;;;;483590;28;1045;-70
2023/09/06 00:06:51;;;;;;;2.92;2.10;;;;;;;;;;484737;28;1236;-71
2023/09/06 00:07:06;;;;;;;2.92;2.10;;;;;;;;;;483190;28;1299;-71
2023/09/06 00:07:23;;;;;;;4.77;2.20;;;;;;;;;;481087;28;1339;-71
2023/09/06 00:07:40;;;;;;;5.20;2.45;;;;;;;;;;481593;28;1308;-72
2023/09/06 00:07:56;;;;;;;4.78;2.28;;;;;;;;;;481125;28;1463;-70
2023/09/06 00:08:16;;;;;;;4.15;2.20;;;;;;;;;;480583;28;1426;-70
2023/09/06 00:08:34;;;;;;;2.75;2.13;;;;;;;;;;481693;28;1358;-71
2023/09/06 00:08:50;;;;;;;3.15;2.10;;;;;;;;;;481101;28;1125;-71
2023/09/06 00:09:06;;;;;;;3.22;2.00;;;;;;;;;;478716;28;1574;-70
2023/09/06 00:09:22;;;;;;;4.15;2.10;;;;;;;;;;478719;28;1065;-71
2023/09/06 00:09:37;;;;;;;3.73;2.10;;;;;;;;;;479739;28;1283;-71
2023/09/06 00:09:53;;;;;;;3.20;2.00;;;;;;;;;;481151;28;1331;-71
2023/09/06 00:10:09;;;;;;;3.88;2.25;;;;;;;;;;479024;28;2390;-71
2023/09/06 00:10:25;;;;;;;3.78;2.33;;;;;;;;;;479561;28;1031;-70
2023/09/06 00:10:44;;;;;;;4.15;2.20;;;;;;;;;;479319;28;1117;-70
2023/09/06 00:11:04;;;;;;;2.85;2.10;;;;;;;;;;478036;28;1248;-73
2023/09/06 00:11:19;;;;;;;3.25;2.00;;;;;;;;;;480355;28;1471;-71
2023/09/06 00:11:35;;;;;;;3.43;2.00;;;;;;;;;;479647;28;1305;-71
2023/09/06 00:11:51;;;;;;;3.63;2.00;;;;;;;;;;481057;28;1363;-70
2023/09/06 00:12:07;;;;;;;3.50;2.10;;;;;;;;;;482862;28;1041;-70
2023/09/06 00:12:22;;;;;;;3.20;2.10;;;;;;;;;;482064;28;2017;-71
2023/09/06 00:12:40;;;;;;;3.13;2.00;;;;;;;;;;480776;28;1410;-70
2023/09/06 00:12:55;;;;;;;3.50;2.00;;;;;;;;;;482498;28;1075;-71
2023/09/06 00:13:12;;;;;;;4.18;2.25;;;;;;;;;;484694;28;1394;-71
2023/09/06 00:13:28;;;;;;;5.82;2.30;;;;;;;;;;482764;28;1060;-70
2023/09/06 00:13:44;;;;;;;5.05;2.10;;;;;;;;;;483246;28;1265;-70
2023/09/06 00:14:03;;;;;;;4.18;2.30;;;;;;;;;;482435;28;1239;-71
2023/09/06 00:14:20;;;;;;;4.25;2.33;;;;;;;;;;482193;28;1402;-70
2023/09/06 00:14:36;;;;;;;3.25;2.28;;;;;;;;;;481782;28;1303;-70
2023/09/06 00:14:52;;;;;;;3.72;2.17;;;;;;;;;;481452;28;1300;-71
2023/09/06 00:15:08;;;;;;;3.83;2.08;;;;;;;;;;481981;28;1216;-70
2023/09/06 00:15:24;;;;;;;3.03;1.98;;;;;;;;;;483167;28;1261;-70
2023/09/06 00:15:40;;;;;;;4.60;2.10;;;;;;;;;;482432;28;1087;-71
2023/09/06 00:15:55;;;;;;;5.47;2.10;;;;;;;;;;482892;28;1010;-70
2023/09/06 00:16:12;;;;;;;4.13;2.00;;;;;;;;;;481284;28;1346;-70
2023/09/06 00:16:28;;;;;;;4.18;2.08;;;;;;;;;;482065;28;959;-70
2023/09/06 00:16:46;;;;;;;3.65;2.03;;;;;;;;;;482038;28;1086;-71
2023/09/06 00:17:02;;;;;;;3.85;2.17;;;;;;;;;;483505;28;1273;-70
2023/09/06 00:17:18;;;;;;;3.67;2.10;;;;;;;;;;484999;28;1020;-70
2023/09/06 00:17:37;;;;;;;3.75;1.95;;;;;;;;;;483416;28;1149;-70
2023/09/06 00:17:53;;;;;;;5.63;1.92;;;;;;;;;;484362;28;1070;-70
2023/09/06 00:18:09;;;;;;;5.93;2.10;;;;;;;;;;483607;28;1272;-70
2023/09/06 00:18:26;;;;;;;3.50;2.20;;;;;;;;;;483653;28;1301;-71
2023/09/06 00:18:42;;;;;;;3.13;2.30;;;;;;;;;;482365;28;1422;-70
2023/09/06 00:18:59;;;;;;;3.72;2.30;;;;;;;;;;481152;28;1304;-70
2023/09/06 00:19:15;;;;;;;4.25;2.10;;;;;;;;;;480335;28;1211;-71
2023/09/06 00:19:30;;;;;;;3.77;2.20;;;;;;;;;;481745;28;1110;-70
2023/09/06 00:19:46;;;;;;;3.05;2.10;;;;;;;;;;482856;28;1155;-70
2023/09/06 00:20:02;;;;;;;3.78;2.25;;;;;;;;;;480277;28;1321;-70
2023/09/06 00:20:21;;;;;;;3.90;2.40;;;;;;;;;;480012;28;1148;-71
2023/09/06 00:20:38;;;;;;;3.53;2.30;;;;;;;;;;480707;28;1397;-70
2023/09/06 00:20:54;;;;;;;4.38;2.20;;;;;;;;;;481289;28;1850;-71
2023/09/06 00:21:10;;;;;;;3.83;2.20;;;;;;;;;;480551;28;1136;-71
2023/09/06 00:21:26;;;;;;;3.47;2.27;;;;;;;;;;480621;28;1217;-70
2023/09/06 00:21:43;;;;;;;3.72;2.40;;;;;;;;;;479641;28;1304;-70
2023/09/06 00:21:59;;;;;;;3.78;2.47;;;;;;;;;;479561;28;1060;-71
2023/09/06 00:22:14;;;;;;;4.17;2.30;;;;;;;;;;479920;28;1300;-70
2023/09/06 00:22:30;;;;;;;3.08;2.08;;;;;;;;;;477319;28;1324;-70
2023/09/06 00:23:08;;;;;;;2.67;2.25;;;;;;;;;;477146;28;1429;-70
2023/09/06 00:23:25;;;;;;;4.70;2.13;;;;;;;;;;476569;28;1331;-70
2023/09/06 00:23:40;;;;;;;4.50;2.17;;;;;;;;;;479906;28;1107;-73
2023/09/06 00:23:56;;;;;;;4.97;2.27;;;;;;;;;;480945;28;1394;-73
2023/09/06 00:24:12;;;;;;;4.72;2.20;;;;;;;;;;482787;28;975;-73
2023/09/06 00:24:28;;;;;;;3.17;2.15;;;;;;;;;;481186;28;1393;-72
2023/09/06 00:24:44;;;;;;;2.70;2.00;;;;;;;;;;479876;28;1170;-73
2023/09/06 00:25:00;;;;;;;2.83;2.13;;;;;;;;;;481826;28;1122;-72
2023/09/06 00:25:15;;;;;;;4.17;2.30;;;;;;;;;;480216;28;1106;-72
2023/09/06 00:25:32;;;;;;;4.10;2.33;;;;;;;;;;478883;28;1296;-72
2023/09/06 00:25:48;;;;;;;2.90;2.22;;;;;;;;;;479830;28;1058;-72
2023/09/06 00:26:03;;;;;;;2.90;2.03;;;;;;;;;;482600;28;1271;-73
2023/09/06 00:26:19;;;;;;;2.85;1.98;;;;;;;;;;483436;28;928;-72
2023/09/06 00:26:35;;;;;;;2.67;2.00;;;;;;;;;;483626;28;1137;-72
2023/09/06 00:26:50;;;;;;;3.27;2.13;;;;;;;;;;483215;28;1090;-72
2023/09/06 00:27:06;;;;;;;3.55;2.22;;;;;;;;;;483028;28;935;-72
2023/09/06 00:27:21;;;;;;;3.13;2.20;;;;;;;;;;480004;28;1286;-72
2023/09/06 00:27:37;;;;;;;3.47;2.17;;;;;;;;;;477863;28;1149;-73
2023/09/06 00:27:55;;;;;;;3.10;2.10;;;;;;;;;;477223;28;1186;-72
2023/09/06 00:28:12;;;;;;;3.75;2.08;;;;;;;;;;479327;28;1018;-73
2023/09/06 00:28:29;;;;;;;4.30;2.10;;;;;;;;;;478283;28;1455;-72
2023/09/06 00:28:49;;;;;;;3.97;2.13;;;;;;;;;;479040;28;1083;-72
2023/09/06 00:29:07;;;;;;;4.18;2.10;;;;;;;;;;479218;28;1003;-72
2023/09/06 00:29:22;;;;;;;2.85;2.10;;;;;;;;;;478841;28;1324;-72
2023/09/06 00:29:38;;;;;;;3.15;2.10;;;;;;;;;;481341;28;1301;-72
2023/09/06 00:29:53;;;;;;;3.63;2.20;;;;;;;;;;481084;28;962;-73
2023/09/06 00:30:09;;;;;;;3.28;2.20;;;;;;;;;;479739;28;1348;-73
2023/09/06 00:30:25;;;;;;;3.13;2.28;;;;;;;;;;480352;28;987;-73
2023/09/06 00:30:44;;;;;;;4.20;2.20;;;;;;;;;;477981;28;1561;-72
2023/09/06 00:30:59;;;;;;;3.30;2.03;;;;;;;;;;477589;28;1290;-73
2023/09/06 00:31:15;;;;;;;3.30;2.10;;;;;;;;;;478494;28;1013;-72
2023/09/06 00:31:31;;;;;;;3.47;2.13;;;;;;;;;;478364;28;1244;-73
2023/09/06 00:31:47;;;;;;;2.90;2.10;;;;;;;;;;479367;28;1188;-72
2023/09/06 00:32:03;;;;;;;4.17;2.27;;;;;;;;;;480870;28;1034;-72
2023/09/06 00:32:18;;;;;;;4.20;2.28;;;;;;;;;;482239;28;1390;-73
2023/09/06 00:32:34;;;;;;;4.10;2.20;;;;;;;;;;482909;28;2019;-72
2023/09/06 00:32:53;;;;;;;3.40;2.07;;;;;;;;;;483484;28;971;-73
2023/09/06 00:33:10;;;;;;;2.80;2.15;;;;;;;;;;484845;28;1425;-72
2023/09/06 00:33:34;;;;;;;2.65;2.05;;;;;;;;;;482371;28;1272;-72
2023/09/06 00:33:50;;;;;;;3.55;2.22;;;;;;;;;;482215;28;1322;-72
2023/09/06 00:34:05;;;;;;;4.40;2.20;;;;;;;;;;481684;28;1173;-72
2023/09/06 00:34:21;;;;;;;4.57;2.20;;;;;;;;;;479783;28;1058;-73
2023/09/06 00:34:37;;;;;;;4.05;2.30;;;;;;;;;;479213;28;1366;-72
2023/09/06 00:34:53;;;;;;;3.80;2.40;;;;;;;;;;479861;28;924;-72
2023/09/06 00:35:08;;;;;;;3.83;2.27;;;;;;;;;;479888;28;1236;-73
2023/09/06 00:35:24;;;;;;;3.58;2.00;;;;;;;;;;481684;28;1360;-72
2023/09/06 00:35:40;;;;;;;2.85;2.10;;;;;;;;;;482378;28;1137;-73
2023/09/06 00:35:56;;;;;;;4.80;2.20;;;;;;;;;;482511;28;1130;-72
2023/09/06 00:36:12;;;;;;;4.70;2.17;;;;;;;;;;484098;28;1393;-72
2023/09/06 00:36:32;;;;;;;3.00;2.13;;;;;;;;;;482374;28;1159;-72
2023/09/06 00:36:48;;;;;;;2.47;2.00;;;;;;;;;;481147;28;1326;-73
2023/09/06 00:37:05;;;;;;;2.90;2.13;;;;;;;;;;481894;28;1127;-73
2023/09/06 00:37:20;;;;;;;4.03;2.22;;;;;;;;;;483055;28;1183;-73
2023/09/06 00:37:37;;;;;;;6.22;2.35;;;;;;;;;;481427;28;1382;-73
2023/09/06 00:37:54;;;;;;;5.03;2.35;;;;;;;;;;480267;28;1105;-73
2023/09/06 00:38:10;;;;;;;2.40;2.10;;;;;;;;;;479347;28;1267;-73
2023/09/06 00:38:26;;;;;;;4.00;2.13;;;;;;;;;;479630;28;1153;-73
2023/09/06 00:38:41;;;;;;;4.40;2.20;;;;;;;;;;479512;28;1126;-73
2023/09/06 00:38:57;;;;;;;3.22;2.25;;;;;;;;;;479980;28;1412;-72
2023/09/06 00:39:13;;;;;;;3.43;2.20;;;;;;;;;;478680;28;1129;-73
2023/09/06 00:39:30;;;;;;;3.88;2.15;;;;;;;;;;480334;28;1219;-73
2023/09/06 00:39:48;;;;;;;4.13;2.33;;;;;;;;;;482431;28;1138;-73
2023/09/06 00:40:18;;;;;;;4.28;2.28;;;;;;;;;;482132;28;1285;-73
2023/09/06 00:40:39;;;;;;;2.70;2.00;;;;;;;;;;482860;28;1077;-73
2023/09/06 00:40:55;;;;;;;3.28;2.25;;;;;;;;;;481167;28;1555;-73
2023/09/06 00:41:11;;;;;;;3.57;2.13;;;;;;;;;;479839;28;1370;-72
2023/09/06 00:41:27;;;;;;;3.30;2.07;;;;;;;;;;477887;28;1550;-73
2023/09/06 00:41:44;;;;;;;3.22;2.05;;;;;;;;;;478008;28;1075;-72
2023/09/06 00:42:01;;;;;;;4.50;2.20;;;;;;;;;;479128;28;1239;-73
2023/09/06 00:42:16;;;;;;;4.10;2.10;;;;;;;;;;480251;28;1206;-73
2023/09/06 00:42:32;;;;;;;2.25;1.90;;;;;;;;;;479862;28;1300;-73
2023/09/06 00:42:50;;;;;;;2.95;2.00;;;;;;;;;;480016;28;1228;-72
2023/09/06 00:43:08;;;;;;;3.05;2.10;;;;;;;;;;481779;28;1109;-72
2023/09/06 00:43:23;;;;;;;3.63;2.20;;;;;;;;;;483458;28;1222;-73
2023/09/06 00:43:39;;;;;;;4.10;2.30;;;;;;;;;;482915;28;1189;-73
2023/09/06 00:43:55;;;;;;;3.35;2.17;;;;;;;;;;483126;28;1119;-73
2023/09/06 00:44:10;;;;;;;2.88;2.10;;;;;;;;;;480826;28;1169;-72
2023/09/06 00:44:26;;;;;;;3.03;2.10;;;;;;;;;;481205;28;1090;-73
2023/09/06 00:44:42;;;;;;;3.40;2.00;;;;;;;;;;482875;28;1005;-72
2023/09/06 00:44:57;;;;;;;3.75;2.08;;;;;;;;;;480438;28;1237;-72
2023/09/06 00:45:13;;;;;;;4.03;2.35;;;;;;;;;;480913;28;1413;-73
2023/09/06 00:45:37;;;;;;;3.20;2.20;;;;;;;;;;481586;28;1316;-72
2023/09/06 00:45:53;;;;;;;3.35;2.10;;;;;;;;;;482600;28;1046;-73
2023/09/06 00:46:09;;;;;;;4.50;2.10;;;;;;;;;;484293;28;966;-72
2023/09/06 00:46:26;;;;;;;4.32;2.10;;;;;;;;;;482752;28;1334;-73
2023/09/06 00:46:42;;;;;;;3.97;2.42;;;;;;;;;;480330;28;1396;-73
2023/09/06 00:46:59;;;;;;;4.27;2.30;;;;;;;;;;479564;28;1029;-72
2023/09/06 00:47:15;;;;;;;3.47;2.05;;;;;;;;;;478447;28;1600;-73
2023/09/06 00:47:31;;;;;;;3.03;2.28;;;;;;;;;;479815;28;1263;-72
2023/09/06 00:47:46;;;;;;;3.50;2.60;;;;;;;;;;478065;28;1260;-73
2023/09/06 00:48:04;;;;;;;3.70;2.50;;;;;;;;;;478002;28;1273;-73
2023/09/06 00:48:26;;;;;;;4.18;2.45;;;;;;;;;;477348;28;1049;-73
2023/09/06 00:48:41;;;;;;;5.35;2.20;;;;;;;;;;480217;28;2218;-73
2023/09/06 00:48:57;;;;;;;4.82;2.17;;;;;;;;;;480779;28;1433;-72
2023/09/06 00:49:13;;;;;;;3.83;2.13;;;;;;;;;;481721;28;1025;-73
2023/09/06 00:49:29;;;;;;;3.40;2.00;;;;;;;;;;478987;28;1568;-72
2023/09/06 00:49:44;;;;;;;3.33;2.00;;;;;;;;;;479674;28;1042;-73
2023/09/06 00:50:00;;;;;;;3.92;2.10;;;;;;;;;;479985;28;1233;-73
2023/09/06 00:50:16;;;;;;;4.83;2.00;;;;;;;;;;480575;28;1341;-72
2023/09/06 00:50:35;;;;;;;4.28;2.10;;;;;;;;;;479949;28;935;-72
2023/09/06 00:50:53;;;;;;;3.47;2.22;;;;;;;;;;481164;28;975;-73
2023/09/06 00:51:10;;;;;;;4.10;2.10;;;;;;;;;;481768;28;1161;-73
2023/09/06 00:51:26;;;;;;;3.85;2.08;;;;;;;;;;481603;28;1283;-73
2023/09/06 00:51:42;;;;;;;3.72;2.20;;;;;;;;;;481539;28;1145;-73
2023/09/06 00:51:57;;;;;;;4.45;2.22;;;;;;;;;;481125;28;1240;-73
2023/09/06 00:52:16;;;;;;;5.10;2.30;;;;;;;;;;481484;28;1151;-72
2023/09/06 00:52:32;;;;;;;4.15;2.22;;;;;;;;;;481642;28;1943;-73
2023/09/06 00:52:50;;;;;;;3.42;2.13;;;;;;;;;;481277;28;1160;-72
2023/09/06 00:53:07;;;;;;;4.57;2.30;;;;;;;;;;482059;28;1189;-72
2023/09/06 00:53:24;;;;;;;4.38;2.28;;;;;;;;;;482826;28;1126;-73
2023/09/06 00:53:40;;;;;;;3.03;2.10;;;;;;;;;;481995;28;995;-73
2023/09/06 00:54:00;;;;;;;3.10;2.10;;;;;;;;;;483890;28;1229;-73
2023/09/06 00:54:16;;;;;;;4.45;2.30;;;;;;;;;;484308;28;1058;-73
2023/09/06 00:54:31;;;;;;;3.70;2.10;;;;;;;;;;485470;28;1112;-73
2023/09/06 00:54:48;;;;;;;3.77;2.00;;;;;;;;;;486352;28;1049;-73
2023/09/06 00:55:04;;;;;;;3.80;2.20;;;;;;;;;;484732;28;1250;-73
2023/09/06 00:55:20;;;;;;;3.85;2.20;;;;;;;;;;484096;28;1334;-73
2023/09/06 00:55:38;;;;;;;4.85;2.10;;;;;;;;;;481706;28;1329;-73
2023/09/06 00:55:53;;;;;;;3.50;1.90;;;;;;;;;;479876;28;1154;-73
2023/09/06 00:56:09;;;;;;;2.67;2.00;;;;;;;;;;480578;28;1153;-73
2023/09/06 00:56:25;;;;;;;2.67;2.00;;;;;;;;;;480047;28;979;-73
2023/09/06 00:56:41;;;;;;;5.22;2.20;;;;;;;;;;479378;28;1215;-73
2023/09/06 00:56:56;;;;;;;5.45;2.30;;;;;;;;;;478977;28;1244;-73
2023/09/06 00:57:12;;;;;;;3.33;2.30;;;;;;;;;;479918;28;1148;-72
2023/09/06 00:57:29;;;;;;;3.10;2.22;;;;;;;;;;478345;28;1461;-72
2023/09/06 00:57:45;;;;;;;3.25;2.20;;;;;;;;;;480657;28;1405;-72
2023/09/06 00:58:01;;;;;;;4.25;2.20;;;;;;;;;;481901;28;1237;-72
2023/09/06 00:58:18;;;;;;;4.88;2.17;;;;;;;;;;480785;28;1115;-73
2023/09/06 00:58:35;;;;;;;4.07;2.20;;;;;;;;;;480880;28;1075;-72
2023/09/06 00:58:51;;;;;;;3.55;2.30;;;;;;;;;;480667;28;1105;-73
2023/09/06 00:59:10;;;;;;;3.00;2.20;;;;;;;;;;480581;28;1459;-73
2023/09/06 00:59:26;;;;;;;3.72;2.30;;;;;;;;;;480969;28;1446;-72
2023/09/06 00:59:43;;;;;;;3.95;2.25;;;;;;;;;;479089;28;1478;-73
2023/09/06 00:59:59;;;;;;;3.20;2.22;;;;;;;;;;480522;28;1197;-72
2023/09/06 01:00:20;;;;;;;2.75;2.40;;;;;;;;;;479066;28;1079;-73
2023/09/06 01:00:36;;;;;;;5.40;2.38;;;;;;;;;;479698;28;1227;-72
2023/09/06 01:00:51;;;;;;;5.57;2.22;;;;;;;;;;482001;28;1300;-73
2023/09/06 01:01:08;;;;;;;3.40;2.28;;;;;;;;;;482943;28;1168;-72
2023/09/06 01:01:24;;;;;;;4.28;2.35;;;;;;;;;;482096;28;1214;-72
2023/09/06 01:01:40;;;;;;;3.53;2.13;;;;;;;;;;482290;28;1424;-73
2023/09/06 01:01:55;;;;;;;3.05;2.15;;;;;;;;;;480843;28;1321;-72
2023/09/06 01:02:11;;;;;;;3.90;2.40;;;;;;;;;;479497;28;971;-73
2023/09/06 01:02:26;;;;;;;3.50;2.47;;;;;;;;;;479964;28;1798;-73
2023/09/06 01:02:42;;;;;;;2.97;2.40;;;;;;;;;;480858;28;1388;-73
2023/09/06 01:02:57;;;;;;;3.45;2.30;;;;;;;;;;481128;28;959;-72
2023/09/06 01:03:14;;;;;;;4.20;2.27;;;;;;;;;;481171;28;1236;-73
2023/09/06 01:03:30;;;;;;;3.58;2.30;;;;;;;;;;480321;28;1206;-73
2023/09/06 01:03:45;;;;;;;3.53;2.30;;;;;;;;;;480610;28;1393;-73
2023/09/06 01:04:01;;;;;;;3.77;2.20;;;;;;;;;;482458;28;1106;-73
2023/09/06 01:04:16;;;;;;;3.50;2.22;;;;;;;;;;480731;28;1285;-72
2023/09/06 01:04:32;;;;;;;2.90;2.20;;;;;;;;;;479159;28;1227;-73
2023/09/06 01:04:48;;;;;;;3.47;2.30;;;;;;;;;;478789;28;1272;-73
2023/09/06 01:05:04;;;;;;;3.97;2.20;;;;;;;;;;479333;28;1034;-72
2023/09/06 01:05:20;;;;;;;3.45;2.13;;;;;;;;;;480599;28;1367;-73
2023/09/06 01:05:55;;;;;;;3.58;2.20;;;;;;;;;;481439;28;1157;-72
2023/09/06 01:06:14;;;;;;;3.88;2.20;;;;;;;;;;480971;28;1325;-73
2023/09/06 01:06:34;;;;;;;3.47;2.20;;;;;;;;;;482007;28;1125;-72
2023/09/06 01:06:55;;;;;;;3.45;2.40;;;;;;;;;;481848;28;1105;-72
2023/09/06 01:07:12;;;;;;;4.35;2.20;;;;;;;;;;482888;28;1194;-73
2023/09/06 01:07:34;;;;;;;4.00;2.20;;;;;;;;;;481776;28;1346;-73
2023/09/06 01:07:53;;;;;;;3.50;2.35;;;;;;;;;;480198;28;1256;-75
2023/09/06 01:08:13;;;;;;;3.22;2.20;;;;;;;;;;481800;28;1067;-73
2023/09/06 01:09:06;;;;;;;3.00;2.13;;;;;;;;;;481852;28;1140;-72
2023/09/06 01:09:23;;;;;;;3.92;2.40;;;;;;;;;;480625;28;1303;-74
2023/09/06 01:09:39;;;;;;;4.97;2.47;;;;;;;;;;482927;28;1439;-72
2023/09/06 01:09:55;;;;;;;4.47;2.40;;;;;;;;;;486264;28;1116;-72
2023/09/06 01:10:10;;;;;;;3.60;2.30;;;;;;;;;;486827;28;1021;-73
2023/09/06 01:10:26;;;;;;;3.60;2.40;;;;;;;;;;484495;28;1355;-73
2023/09/06 01:10:41;;;;;;;5.32;2.40;;;;;;;;;;484057;28;947;-73
2023/09/06 01:11:22;;;;;;;5.00;2.40;;;;;;;;;;484609;28;1152;-72
2023/09/06 01:11:39;;;;;;;3.50;2.15;;;;;;;;;;483689;28;1461;-73
2023/09/06 01:11:55;;;;;;;3.92;2.30;;;;;;;;;;483436;28;2313;-73
2023/09/06 01:12:12;;;;;;;3.83;2.30;;;;;;;;;;483654;28;1105;-73
2023/09/06 01:12:28;;;;;;;4.03;2.40;;;;;;;;;;485421;28;2334;-73
2023/09/06 01:12:43;;;;;;;4.82;2.50;;;;;;;;;;483743;28;1330;-73
2023/09/06 01:12:59;;;;;;;4.67;2.50;;;;;;;;;;481310;28;1154;-73
2023/09/06 01:13:14;;;;;;;4.03;2.50;;;;;;;;;;483476;28;1328;-73
2023/09/06 01:13:30;;;;;;;3.50;2.40;;;;;;;;;;481966;28;1055;-73
2023/09/06 01:13:48;;;;;;;3.65;2.28;;;;;;;;;;481966;28;963;-73
2023/09/06 01:14:04;;;;;;;4.22;2.33;;;;;;;;;;483733;28;1293;-72
2023/09/06 01:14:19;;;;;;;3.60;2.30;;;;;;;;;;482831;28;1041;-73
2023/09/06 01:14:38;;;;;;;2.55;2.20;;;;;;;;;;482228;28;1223;-73
2023/09/06 01:14:53;;;;;;;3.35;2.38;;;;;;;;;;483015;28;1316;-73
2023/09/06 01:15:11;;;;;;;4.40;2.45;;;;;;;;;;481908;28;1243;-72
2023/09/06 01:15:27;;;;;;;4.35;2.40;;;;;;;;;;482083;28;1090;-72
2023/09/06 01:15:44;;;;;;;4.00;2.30;;;;;;;;;;481845;28;1567;-73
2023/09/06 01:16:00;;;;;;;4.28;2.42;;;;;;;;;;482157;28;1416;-73
2023/09/06 01:16:23;;;;;;;5.75;2.53;;;;;;;;;;481902;28;1253;-73
2023/09/06 01:16:42;;;;;;;5.50;2.50;;;;;;;;;;482300;28;1209;-73
2023/09/06 01:16:58;;;;;;;3.85;2.40;;;;;;;;;;481483;28;1105;-73
2023/09/06 01:17:17;;;;;;;3.30;2.28;;;;;;;;;;482277;28;1109;-72
2023/09/06 01:17:36;;;;;;;4.03;2.30;;;;;;;;;;482906;28;1272;-73
2023/09/06 01:17:53;;;;;;;2.80;2.25;;;;;;;;;;482468;28;1291;-73
2023/09/06 01:18:09;;;;;;;2.88;2.28;;;;;;;;;;482525;28;987;-72
2023/09/06 01:18:26;;;;;;;4.35;2.58;;;;;;;;;;482784;28;1166;-72
2023/09/06 01:18:42;;;;;;;4.38;2.42;;;;;;;;;;483235;28;1117;-72
2023/09/06 01:18:59;;;;;;;2.75;2.10;;;;;;;;;;482935;28;1411;-72
2023/09/06 01:19:18;;;;;;;2.47;2.10;;;;;;;;;;481059;28;1374;-72
2023/09/06 01:19:36;;;;;;;2.72;2.20;;;;;;;;;;480654;28;1368;-73
2023/09/06 01:19:57;;;;;;;3.17;2.22;;;;;;;;;;481651;28;1368;-73
2023/09/06 01:20:38;;;;;;;2.85;2.17;;;;;;;;;;481670;28;991;-72
2023/09/06 01:21:03;;;;;;;2.50;2.00;;;;;;;;;;482661;28;1065;-73
2023/09/06 01:21:20;;;;;;;2.55;2.10;;;;;;;;;;484524;28;1683;-73
2023/09/06 01:21:40;;;;;;;3.47;2.20;;;;;;;;;;484428;28;1349;-73
2023/09/06 01:22:02;;;;;;;3.67;2.35;;;;;;;;;;483457;28;1078;-73
2023/09/06 01:22:28;;;;;;;4.28;2.42;;;;;;;;;;483734;28;951;-73
2023/09/06 01:22:53;;;;;;;4.20;2.20;;;;;;;;;;483630;28;1062;-73
2023/09/06 01:23:33;;;;;;;3.38;2.17;;;;;;;;;;483952;28;1190;-73
2023/09/06 01:23:51;;;;;;;3.28;2.30;;;;;;;;;;483720;28;1113;-73
2023/09/06 01:24:10;;;;;;;4.70;2.30;;;;;;;;;;484399;28;1103;-72
2023/09/06 01:24:28;;;;;;;4.00;2.50;;;;;;;;;;484490;28;1281;-73
2023/09/06 01:24:45;;;;;;;3.38;2.28;;;;;;;;;;485615;28;1440;-72
2023/09/06 01:25:02;;;;;;;3.25;2.30;;;;;;;;;;484997;28;1275;-73
2023/09/06 01:25:18;;;;;;;3.47;2.33;;;;;;;;;;482775;28;1278;-73
2023/09/06 01:25:33;;;;;;;4.30;2.20;;;;;;;;;;480666;28;1310;-73
2023/09/06 01:25:49;;;;;;;4.70;2.40;;;;;;;;;;478171;28;1162;-73
2023/09/06 01:26:06;;;;;;;3.60;2.50;;;;;;;;;;477889;28;1479;-73
2023/09/06 01:26:22;;;;;;;3.08;2.38;;;;;;;;;;478065;28;1146;-73
2023/09/06 01:26:38;;;;;;;2.80;2.33;;;;;;;;;;477136;28;1236;-73
2023/09/06 01:26:54;;;;;;;2.30;2.10;;;;;;;;;;478761;28;1706;-72
2023/09/06 01:27:12;;;;;;;2.33;2.03;;;;;;;;;;479822;28;1047;-72
2023/09/06 01:27:27;;;;;;;3.42;2.40;;;;;;;;;;479098;28;1314;-74
2023/09/06 01:27:44;;;;;;;4.77;2.50;;;;;;;;;;481244;28;1079;-72
2023/09/06 01:28:00;;;;;;;4.13;2.30;;;;;;;;;;482926;28;1096;-72
2023/09/06 01:28:16;;;;;;;3.33;2.10;;;;;;;;;;482916;28;1019;-73
2023/09/06 01:28:32;;;;;;;3.20;2.05;;;;;;;;;;480959;28;1213;-73
2023/09/06 01:28:49;;;;;;;3.08;2.03;;;;;;;;;;483051;28;1346;-73
2023/09/06 01:29:05;;;;;;;3.03;2.00;;;;;;;;;;484650;28;1318;-73
2023/09/06 01:29:20;;;;;;;3.13;2.10;;;;;;;;;;484122;28;1082;-72
2023/09/06 01:29:36;;;;;;;3.63;2.20;;;;;;;;;;481050;28;1381;-72
2023/09/06 01:29:53;;;;;;;3.30;2.10;;;;;;;;;;482408;28;1394;-72
2023/09/06 01:30:08;;;;;;;4.00;2.10;;;;;;;;;;481615;28;1248;-72
2023/09/06 01:30:30;;;;;;;3.93;2.30;;;;;;;;;;482081;28;1065;-72
2023/09/06 01:30:46;;;;;;;3.20;2.38;;;;;;;;;;481053;28;1377;-73
2023/09/06 01:31:02;;;;;;;3.35;2.42;;;;;;;;;;481012;28;1518;-73
2023/09/06 01:31:18;;;;;;;3.67;2.33;;;;;;;;;;480640;28;1113;-73
2023/09/06 01:31:33;;;;;;;4.10;2.22;;;;;;;;;;481577;28;1259;-72
2023/09/06 01:31:49;;;;;;;4.33;2.30;;;;;;;;;;479524;28;1282;-72
2023/09/06 01:32:06;;;;;;;3.50;2.20;;;;;;;;;;483495;28;1290;-73
2023/09/06 01:32:22;;;;;;;2.95;2.20;;;;;;;;;;483729;28;1019;-73
2023/09/06 01:32:37;;;;;;;2.65;2.20;;;;;;;;;;483416;28;2487;-73
2023/09/06 01:32:53;;;;;;;2.50;2.20;;;;;;;;;;483747;28;1139;-72
2023/09/06 01:33:08;;;;;;;3.30;2.38;;;;;;;;;;480542;28;1369;-73
2023/09/06 01:33:24;;;;;;;4.30;2.40;;;;;;;;;;480871;28;1229;-72
2023/09/06 01:33:39;;;;;;;4.32;2.25;;;;;;;;;;484165;28;1145;-72
2023/09/06 01:33:55;;;;;;;3.80;2.27;;;;;;;;;;483237;28;1387;-71
2023/09/06 01:34:10;;;;;;;3.13;2.25;;;;;;;;;;481654;28;1522;-70
2023/09/06 01:34:26;;;;;;;3.20;2.40;;;;;;;;;;481454;28;1211;-70
2023/09/06 01:34:41;;;;;;;4.45;2.42;;;;;;;;;;482262;28;1456;-71
2023/09/06 01:34:58;;;;;;;4.13;2.30;;;;;;;;;;479280;28;1036;-72
2023/09/06 01:35:13;;;;;;;3.30;2.20;;;;;;;;;;477962;28;1488;-71
2023/09/06 01:35:29;;;;;;;2.97;2.30;;;;;;;;;;480509;28;1022;-71
2023/09/06 01:35:44;;;;;;;2.60;2.30;;;;;;;;;;481970;28;1089;-71
2023/09/06 01:36:00;;;;;;;2.83;2.10;;;;;;;;;;481951;28;1197;-70
2023/09/06 01:36:15;;;;;;;2.97;2.17;;;;;;;;;;484129;28;1001;-70
2023/09/06 01:36:31;;;;;;;4.55;2.40;;;;;;;;;;483317;28;990;-71
2023/09/06 01:36:46;;;;;;;5.53;2.43;;;;;;;;;;483050;28;1184;-70
2023/09/06 01:37:02;;;;;;;4.55;2.35;;;;;;;;;;483863;28;1044;-70
2023/09/06 01:37:17;;;;;;;3.25;2.20;;;;;;;;;;485714;28;1402;-70
2023/09/06 01:37:35;;;;;;;2.90;2.27;;;;;;;;;;483681;28;1263;-71
2023/09/06 01:37:50;;;;;;;3.20;2.35;;;;;;;;;;484345;28;1330;-70
2023/09/06 01:38:06;;;;;;;3.13;2.20;;;;;;;;;;484234;28;1077;-70
2023/09/06 01:38:22;;;;;;;2.92;2.10;;;;;;;;;;483648;28;1230;-70
2023/09/06 01:38:37;;;;;;;3.87;2.10;;;;;;;;;;483171;28;1177;-70
2023/09/06 01:38:53;;;;;;;4.10;2.22;;;;;;;;;;483297;28;1241;-72
2023/09/06 01:39:08;;;;;;;3.13;2.30;;;;;;;;;;483054;28;1407;-70
2023/09/06 01:39:24;;;;;;;3.60;2.30;;;;;;;;;;482235;28;1430;-71
2023/09/06 01:39:40;;;;;;;3.67;2.30;;;;;;;;;;483581;28;1106;-70
2023/09/06 01:39:56;;;;;;;4.18;2.40;;;;;;;;;;483430;28;1176;-70
2023/09/06 01:40:15;;;;;;;4.70;2.50;;;;;;;;;;483785;28;1383;-70
2023/09/06 01:40:31;;;;;;;4.25;2.58;;;;;;;;;;483703;28;1085;-70
2023/09/06 01:40:46;;;;;;;2.92;2.20;;;;;;;;;;483404;28;919;-70
2023/09/06 01:41:03;;;;;;;2.30;2.10;;;;;;;;;;481367;28;959;-71
2023/09/06 01:41:19;;;;;;;3.20;2.30;;;;;;;;;;481754;28;1474;-71
2023/09/06 01:41:35;;;;;;;3.88;2.47;;;;;;;;;;482295;28;1204;-70
2023/09/06 01:41:50;;;;;;;3.55;2.40;;;;;;;;;;482394;28;1304;-71
2023/09/06 01:42:06;;;;;;;3.17;2.30;;;;;;;;;;482672;28;1213;-70
2023/09/06 01:42:22;;;;;;;3.03;2.30;;;;;;;;;;481519;28;1286;-71
2023/09/06 01:42:38;;;;;;;4.30;2.50;;;;;;;;;;480498;28;1243;-70
2023/09/06 01:42:54;;;;;;;4.03;2.50;;;;;;;;;;480037;28;1217;-71
2023/09/06 01:43:09;;;;;;;3.00;2.30;;;;;;;;;;481217;28;1425;-70
2023/09/06 01:43:25;;;;;;;3.92;2.40;;;;;;;;;;480148;28;1272;-70
2023/09/06 01:43:40;;;;;;;4.47;2.40;;;;;;;;;;480121;28;1026;-71
2023/09/06 01:43:55;;;;;;;3.97;2.40;;;;;;;;;;480304;28;1370;-71
2023/09/06 01:44:11;;;;;;;5.60;2.47;;;;;;;;;;477584;28;1317;-72
2023/09/06 01:44:27;;;;;;;6.65;2.50;;;;;;;;;;478829;28;1531;-70
2023/09/06 01:44:42;;;;;;;4.40;2.30;;;;;;;;;;478960;28;1424;-70
2023/09/06 01:44:58;;;;;;;3.70;2.17;;;;;;;;;;479024;28;1268;-71
2023/09/06 01:45:17;;;;;;;3.70;2.30;;;;;;;;;;479002;28;916;-72
2023/09/06 01:45:34;;;;;;;4.38;2.30;;;;;;;;;;478751;28;1281;-70